Time;durP1;ratioP1;P1;durP2;ratioP2;P2;SDS_P1;SDS_P2;PMS_P1;PMS_P2;Temp;Humidity;BMP_temperature;BMP_pressure;BME280_temperature;BME280_humidity;BME280_pressure;Samples;Min_cycle;Max_cycle;Signal;HPM_P1;HPM_P2
2022/11/19 00:01:23;;;;;;;1.08;0.88;;;1.40;99.90;;;;;;4964978;28;20046;-65
2022/11/19 00:03:50;;;;;;;2.17;1.02;;;1.40;99.90;;;;;;4964231;28;20169;-64
2022/11/19 00:06:24;;;;;;;1.88;1.55;;;1.40;99.90;;;;;;4963056;28;20097;-67
2022/11/19 00:08:51;;;;;;;2.97;1.83;;;1.30;99.90;;;;;;4962623;28;20042;-65
2022/11/19 00:12:53;;;;;;;1.60;1.25;;;1.40;99.90;;;;;;4962310;28;20051;-65
2022/11/19 00:14:11;;;;;;;4.20;1.60;;;1.40;99.90;;;;;;4961363;28;20420;-66
2022/11/19 00:16:38;;;;;;;1.58;1.30;;;1.40;99.90;;;;;;4961270;28;20445;-65
2022/11/19 00:19:05;;;;;;;2.10;0.90;;;1.40;99.90;;;;;;4960011;28;20130;-64
2022/11/19 00:21:32;;;;;;;1.90;1.27;;;1.40;99.90;;;;;;4957210;28;20386;-65
2022/11/19 00:23:59;;;;;;;3.25;1.30;;;1.30;99.90;;;;;;4964641;28;20049;-64
2022/11/19 00:26:26;;;;;;;3.15;1.25;;;1.30;99.90;;;;;;4961212;28;20038;-68
2022/11/19 00:28:54;;;;;;;2.75;1.30;;;1.30;99.90;;;;;;4957698;28;20105;-64
2022/11/19 00:31:21;;;;;;;1.38;1.27;;;1.30;99.90;;;;;;4960795;28;20113;-64
2022/11/19 00:33:53;;;;;;;2.55;1.58;;;1.30;99.90;;;;;;4967352;28;20042;-64
2022/11/19 00:36:20;;;;;;;2.60;1.23;;;1.30;99.90;;;;;;4956197;28;20061;-66
2022/11/19 00:38:47;;;;;;;4.90;1.23;;;1.30;99.90;;;;;;4958856;28;20133;-67
2022/11/19 00:41:14;;;;;;;1.73;1.20;;;1.30;99.90;;;;;;4960879;28;20237;-65
2022/11/19 00:43:47;;;;;;;3.75;1.25;;;1.30;99.90;;;;;;4956049;28;20388;-67
2022/11/19 00:46:29;;;;;;;1.33;0.95;;;1.30;99.90;;;;;;4960512;28;20515;-66
2022/11/19 00:48:57;;;;;;;1.15;0.90;;;1.30;99.90;;;;;;4957550;28;20074;-69
2022/11/19 00:51:28;;;;;;;1.20;1.10;;;1.20;99.90;;;;;;4959024;28;20053;-68
2022/11/19 00:53:55;;;;;;;1.20;1.10;;;1.20;99.90;;;;;;4962677;28;20046;-63
2022/11/19 00:56:24;;;;;;;3.40;1.13;;;1.20;99.90;;;;;;4963304;28;20520;-64
2022/11/19 00:58:52;;;;;;;4.28;1.70;;;1.30;99.90;;;;;;4961377;28;20039;-69
2022/11/19 01:01:22;;;;;;;4.00;1.58;;;1.30;99.90;;;;;;4962159;28;20053;-64
2022/11/19 01:03:49;;;;;;;1.63;1.10;;;1.20;99.90;;;;;;4967908;28;20053;-64
2022/11/19 01:06:18;;;;;;;4.50;1.27;;;1.20;99.90;;;;;;4959165;28;20039;-69
2022/11/19 01:08:49;;;;;;;1.35;1.23;;;1.20;99.90;;;;;;4961793;28;20046;-64
2022/11/19 01:11:28;;;;;;;2.00;1.15;;;1.20;99.90;;;;;;4962213;28;20563;-65
2022/11/19 01:13:55;;;;;;;1.75;1.42;;;1.20;99.90;;;;;;4961720;28;20102;-65
2022/11/19 01:16:25;;;;;;;3.10;1.17;;;1.20;99.90;;;;;;4957202;28;20065;-65
2022/11/19 01:18:52;;;;;;;1.60;1.50;;;1.20;99.90;;;;;;4961271;28;20235;-68
2022/11/19 01:21:21;;;;;;;1.88;1.25;;;1.20;99.90;;;;;;4962238;28;20042;-68
2022/11/19 01:23:48;;;;;;;2.03;1.25;;;1.20;99.90;;;;;;4962633;28;20160;-68
2022/11/19 01:26:16;;;;;;;1.60;1.00;;;1.20;99.90;;;;;;4964359;28;20047;-67
2022/11/19 01:28:44;;;;;;;4.72;2.00;;;1.20;99.90;;;;;;4962955;28;20142;-64
2022/11/19 01:31:16;;;;;;;2.63;1.35;;;1.20;99.90;;;;;;4961027;28;20062;-66
2022/11/19 01:33:43;;;;;;;0.90;0.75;;;1.20;99.90;;;;;;4955684;28;20047;-64
2022/11/19 01:36:14;;;;;;;2.95;1.15;;;1.20;99.90;;;;;;4958259;28;20042;-64
2022/11/19 01:38:41;;;;;;;1.55;1.10;;;1.30;99.90;;;;;;4959254;28;20050;-67
2022/11/19 01:41:09;;;;;;;2.80;1.27;;;1.30;99.90;;;;;;4958739;28;20089;-66
2022/11/19 01:43:41;;;;;;;3.20;1.42;;;1.30;99.90;;;;;;4957518;28;20043;-66
2022/11/19 01:46:10;;;;;;;2.22;1.38;;;1.20;99.90;;;;;;4958236;28;20781;-69
2022/11/19 01:48:56;;;;;;;1.60;1.00;;;1.30;99.90;;;;;;4962140;28;20761;-65
2022/11/19 01:51:29;;;;;;;1.38;1.10;;;1.30;99.90;;;;;;4952540;28;20410;-64
2022/11/19 01:53:59;;;;;;;1.30;1.20;;;1.30;99.90;;;;;;4962804;28;20071;-67
2022/11/19 01:56:28;;;;;;;1.25;1.05;;;1.30;99.90;;;;;;4959078;28;20053;-66
2022/11/19 01:59:01;;;;;;;3.17;1.10;;;1.20;99.90;;;;;;4960926;28;20461;-65
2022/11/19 02:01:29;;;;;;;2.92;1.70;;;1.20;99.90;;;;;;4960639;28;20142;-65
2022/11/19 02:04:02;;;;;;;1.38;0.90;;;1.20;99.90;;;;;;4960065;28;20046;-67
2022/11/19 02:06:31;;;;;;;2.22;0.93;;;1.20;99.90;;;;;;4960446;28;20117;-67
2022/11/19 02:08:58;;;;;;;1.65;1.45;;;1.20;99.90;;;;;;4952696;28;20078;-67
2022/11/19 02:11:24;;;;;;;1.90;1.38;;;1.20;99.90;;;;;;4959201;28;20038;-70
2022/11/19 02:14:24;;;;;;;3.67;1.23;;;1.20;99.90;;;;;;4958200;28;20050;-65
2022/11/19 02:17:29;;;;;;;1.98;1.48;;;1.20;99.90;;;;;;4959066;28;20480;-63
2022/11/19 02:19:59;;;;;;;2.50;1.15;;;1.20;99.90;;;;;;4960773;28;20046;-65
2022/11/19 02:22:37;;;;;;;2.25;1.60;;;1.20;99.90;;;;;;4968593;28;20389;-65
2022/11/19 02:25:17;;;;;;;2.97;1.92;;;1.20;99.90;;;;;;4965796;28;20357;-67
2022/11/19 02:27:59;;;;;;;4.05;1.45;;;1.20;99.90;;;;;;4961735;28;20043;-64
2022/11/19 02:30:31;;;;;;;2.13;1.92;;;1.20;99.90;;;;;;4963047;28;20051;-68
2022/11/19 02:33:15;;;;;;;2.40;1.50;;;1.20;99.90;;;;;;4966928;28;20046;-63
2022/11/19 02:36:08;;;;;;;2.70;1.92;;;1.20;99.90;;;;;;4961042;28;20109;-68
2022/11/19 02:38:50;;;;;;;2.83;1.80;;;1.20;99.90;;;;;;4962749;28;20130;-65
2022/11/19 02:41:33;;;;;;;3.03;2.42;;;1.20;99.90;;;;;;4961442;28;20458;-64
2022/11/19 02:47:12;;;;;;;4.30;2.47;;;1.20;99.90;;;;;;4962965;28;20793;-69
2022/11/19 02:49:43;;;;;;;3.63;2.95;;;1.20;99.90;;;;;;4960016;28;20054;-64
2022/11/19 02:52:15;;;;;;;3.05;1.85;;;1.10;99.90;;;;;;4963912;28;20137;-70
2022/11/19 02:54:42;;;;;;;2.95;2.00;;;1.10;99.90;;;;;;4964735;28;20150;-70
2022/11/19 02:57:11;;;;;;;2.75;2.00;;;1.20;99.90;;;;;;4963900;28;20042;-64
2022/11/19 03:05:50;;;;;;;2.15;1.92;;;1.10;99.90;;;;;;4959462;28;20051;-66
2022/11/19 03:08:18;;;;;;;2.10;1.52;;;1.10;99.90;;;;;;4958359;28;20083;-67
2022/11/19 03:10:57;;;;;;;3.10;1.95;;;1.10;99.90;;;;;;4962003;28;20090;-68
2022/11/19 03:16:41;;;;;;;2.03;1.77;;;1.10;99.90;;;;;;4956566;28;20074;-64
2022/11/19 03:19:35;;;;;;;1.95;1.55;;;1.00;99.90;;;;;;4961689;28;20093;-64
2022/11/19 03:22:17;;;;;;;2.72;1.30;;;1.10;99.90;;;;;;4960490;28;20393;-65
2022/11/19 03:25:07;;;;;;;1.75;1.60;;;1.10;99.90;;;;;;4963486;28;20043;-64
2022/11/19 03:27:51;;;;;;;3.35;1.58;;;1.10;99.90;;;;;;4961842;28;20453;-63
2022/11/19 03:30:19;;;;;;;1.83;0.93;;;1.10;99.90;;;;;;4960682;28;20137;-65
2022/11/19 03:32:57;;;;;;;1.23;1.13;;;1.10;99.90;;;;;;4964388;28;20043;-66
2022/11/19 03:35:28;;;;;;;1.38;0.95;;;1.00;99.90;;;;;;4962409;28;20245;-67
2022/11/19 03:38:00;;;;;;;1.63;1.50;;;1.00;99.90;;;;;;4961163;28;20145;-64
2022/11/19 03:40:29;;;;;;;1.55;1.45;;;1.00;99.90;;;;;;4963314;28;20083;-64
2022/11/19 03:42:58;;;;;;;3.70;1.23;;;1.00;99.90;;;;;;4962346;28;20065;-63
2022/11/19 03:45:28;;;;;;;0.93;0.73;;;1.00;99.90;;;;;;4961178;28;20082;-64
2022/11/19 03:47:58;;;;;;;1.60;1.50;;;1.00;99.90;;;;;;4959152;28;20141;-63
2022/11/19 03:50:31;;;;;;;1.85;1.23;;;1.00;99.90;;;;;;4962962;28;20078;-63
2022/11/19 03:52:58;;;;;;;2.35;0.90;;;1.00;99.90;;;;;;4960434;28;20109;-65
2022/11/19 03:55:47;;;;;;;1.13;0.80;;;1.00;99.90;;;;;;4959551;28;20098;-64
2022/11/19 03:58:14;;;;;;;1.60;1.10;;;0.90;99.90;;;;;;4960242;28;20062;-64
2022/11/19 04:00:41;;;;;;;1.00;0.90;;;1.00;99.90;;;;;;4959018;28;20050;-62
2022/11/19 04:03:08;;;;;;;1.20;0.93;;;1.00;99.90;;;;;;4959484;28;20050;-63
2022/11/19 04:05:35;;;;;;;0.88;0.80;;;0.90;99.90;;;;;;4959245;28;20077;-66
2022/11/19 04:08:02;;;;;;;0.70;0.57;;;1.00;99.90;;;;;;4955069;28;20166;-66
2022/11/19 04:10:29;;;;;;;0.60;0.40;;;0.90;99.90;;;;;;4961423;28;20047;-65
2022/11/19 04:12:56;;;;;;;0.88;0.60;;;0.90;99.90;;;;;;4961272;28;20106;-65
2022/11/19 04:15:23;;;;;;;1.00;0.90;;;0.90;99.90;;;;;;4958331;28;20444;-67
2022/11/19 04:17:49;;;;;;;1.35;0.75;;;0.90;99.90;;;;;;4965628;28;20563;-64
2022/11/19 04:20:16;;;;;;;0.90;0.90;;;0.90;99.90;;;;;;4962529;28;20384;-64
2022/11/19 04:22:43;;;;;;;3.40;1.50;;;0.90;99.90;;;;;;4962833;28;20061;-63
2022/11/19 04:25:10;;;;;;;1.73;1.38;;;1.00;99.90;;;;;;4963264;28;20142;-64
2022/11/19 04:27:37;;;;;;;1.10;1.00;;;0.90;99.90;;;;;;4968412;28;20125;-63
2022/11/19 04:30:04;;;;;;;2.33;1.40;;;0.90;99.90;;;;;;4962139;28;20154;-65
2022/11/19 04:32:31;;;;;;;1.65;1.33;;;0.90;99.90;;;;;;4960844;28;20066;-63
2022/11/19 04:34:58;;;;;;;1.52;1.40;;;0.90;99.90;;;;;;4960657;28;20042;-63
2022/11/19 04:37:25;;;;;;;1.45;1.35;;;0.90;99.90;;;;;;4965955;28;20054;-64
2022/11/19 04:39:52;;;;;;;2.25;1.30;;;0.90;99.90;;;;;;4960933;28;20085;-65
2022/11/19 04:42:19;;;;;;;4.63;2.00;;;0.90;99.90;;;;;;4963508;28;20050;-68
2022/11/19 04:44:46;;;;;;;1.38;1.27;;;0.80;99.90;;;;;;4968882;28;20042;-64
2022/11/19 04:47:12;;;;;;;2.22;1.90;;;0.80;99.90;;;;;;4959372;28;20389;-65
2022/11/19 04:49:39;;;;;;;1.70;1.40;;;0.80;99.90;;;;;;4957777;28;20050;-63
2022/11/19 04:52:06;;;;;;;1.85;1.50;;;0.80;99.90;;;;;;4958205;28;20213;-65
2022/11/19 04:54:33;;;;;;;2.95;1.77;;;0.90;99.90;;;;;;4959836;28;20046;-66
2022/11/19 04:57:00;;;;;;;1.77;1.30;;;0.80;99.90;;;;;;4958033;28;20035;-67
2022/11/19 04:59:27;;;;;;;4.63;1.75;;;0.80;99.90;;;;;;4956295;28;20051;-64
2022/11/19 05:01:54;;;;;;;2.95;1.50;;;0.80;99.90;;;;;;4960506;28;20047;-64
2022/11/19 05:04:21;;;;;;;3.38;1.60;;;0.80;99.90;;;;;;4960880;28;20043;-67
2022/11/19 05:06:48;;;;;;;2.40;1.50;;;0.80;99.90;;;;;;4955111;28;20047;-65
2022/11/19 05:09:15;;;;;;;1.75;1.65;;;0.80;99.90;;;;;;4964591;28;20065;-64
2022/11/19 05:11:42;;;;;;;2.30;1.30;;;0.80;99.90;;;;;;4957703;28;20054;-67
2022/11/19 05:14:09;;;;;;;4.25;1.75;;;0.70;99.90;;;;;;4957093;28;20478;-67
2022/11/19 05:16:36;;;;;;;1.20;1.10;;;0.70;99.90;;;;;;4957238;28;20065;-64
2022/11/19 05:19:02;;;;;;;2.47;1.50;;;0.80;99.90;;;;;;4963713;28;20074;-67
2022/11/19 05:21:29;;;;;;;1.88;1.70;;;0.80;99.90;;;;;;4959899;28;20145;-64
2022/11/19 05:23:56;;;;;;;2.58;1.85;;;0.80;99.90;;;;;;4993100;28;20580;-63
2022/11/19 05:26:23;;;;;;;2.53;2.05;;;0.80;99.90;;;;;;4958762;28;20047;-66
2022/11/19 05:28:50;;;;;;;3.90;1.77;;;0.80;99.90;;;;;;4966123;28;20361;-65
2022/11/19 05:31:17;;;;;;;1.60;1.50;;;0.80;99.90;;;;;;4962020;28;20046;-64
2022/11/19 05:33:44;;;;;;;1.75;1.65;;;0.80;99.90;;;;;;4960069;28;20150;-64
2022/11/19 05:36:11;;;;;;;2.15;1.92;;;0.80;99.90;;;;;;4963733;28;20137;-65
2022/11/19 05:38:37;;;;;;;6.78;2.20;;;0.80;99.90;;;;;;4961433;28;20397;-67
2022/11/19 05:41:04;;;;;;;2.47;1.67;;;0.80;99.90;;;;;;4961084;28;20769;-65
2022/11/19 05:43:31;;;;;;;2.95;1.27;;;0.80;99.90;;;;;;4958441;28;20461;-64
2022/11/19 05:46:00;;;;;;;4.20;1.45;;;0.80;99.90;;;;;;4961843;28;20511;-66
2022/11/19 05:48:27;;;;;;;1.75;1.65;;;0.80;99.90;;;;;;4959777;28;20110;-63
2022/11/19 05:50:55;;;;;;;1.52;1.38;;;0.70;99.90;;;;;;4960633;28;20137;-64
2022/11/19 05:53:21;;;;;;;2.10;1.90;;;0.80;99.90;;;;;;4956045;28;20053;-65
2022/11/19 05:55:48;;;;;;;3.45;1.90;;;0.70;99.90;;;;;;4957684;28;20046;-63
2022/11/19 05:58:15;;;;;;;2.90;1.48;;;0.70;99.90;;;;;;4963872;28;20474;-64
2022/11/19 06:00:42;;;;;;;2.78;1.58;;;0.70;99.90;;;;;;4963676;28;20047;-63
2022/11/19 06:03:09;;;;;;;4.00;2.85;;;0.70;99.90;;;;;;4964682;28;20657;-63
2022/11/19 06:05:36;;;;;;;2.92;2.00;;;0.70;99.90;;;;;;4965765;28;20090;-63
2022/11/19 06:08:06;;;;;;;3.63;2.13;;;0.70;99.90;;;;;;4959995;28;20137;-66
2022/11/19 06:10:33;;;;;;;3.65;1.98;;;0.70;99.90;;;;;;4960653;28;20055;-68
2022/11/19 06:13:00;;;;;;;2.72;1.73;;;0.70;99.90;;;;;;4961544;28;20129;-67
2022/11/19 06:15:27;;;;;;;3.03;1.60;;;0.70;99.90;;;;;;4959190;28;21395;-64
2022/11/19 06:17:55;;;;;;;4.25;1.50;;;0.70;99.90;;;;;;4967539;28;20350;-64
2022/11/19 06:20:22;;;;;;;3.13;1.48;;;0.60;99.90;;;;;;4965709;28;20056;-66
2022/11/19 06:22:50;;;;;;;2.38;1.48;;;0.60;99.90;;;;;;4967538;28;20081;-64
2022/11/19 06:25:19;;;;;;;3.47;1.48;;;0.60;99.90;;;;;;4961956;28;20461;-65
2022/11/19 06:27:46;;;;;;;1.83;1.55;;;0.70;99.90;;;;;;4964240;28;20049;-63
2022/11/19 06:30:14;;;;;;;1.80;1.45;;;0.70;99.90;;;;;;4969156;28;20039;-64
2022/11/19 06:32:42;;;;;;;1.80;1.35;;;0.70;99.90;;;;;;4965757;28;20165;-63
2022/11/19 06:35:09;;;;;;;4.07;2.22;;;0.70;99.90;;;;;;4967676;28;20153;-67
2022/11/19 06:37:36;;;;;;;2.33;1.70;;;0.60;99.90;;;;;;4964225;28;20141;-64
2022/11/19 06:40:03;;;;;;;3.92;1.85;;;0.60;99.90;;;;;;4964006;28;20053;-63
2022/11/19 06:42:36;;;;;;;3.50;1.77;;;0.60;99.90;;;;;;4964932;28;20058;-64
2022/11/19 06:45:09;;;;;;;4.20;1.95;;;0.60;99.90;;;;;;4965560;28;20109;-64
2022/11/19 06:47:38;;;;;;;2.28;1.75;;;0.60;99.90;;;;;;4968208;28;20046;-65
2022/11/19 06:50:08;;;;;;;2.47;1.95;;;0.60;99.90;;;;;;4967848;28;20610;-64
2022/11/19 06:52:35;;;;;;;5.20;1.30;;;0.60;99.90;;;;;;4964325;28;20053;-64
2022/11/19 06:55:02;;;;;;;1.65;1.52;;;0.60;99.90;;;;;;4962114;28;20135;-63
2022/11/19 06:57:29;;;;;;;2.33;1.95;;;0.60;99.90;;;;;;4963107;28;20046;-65
2022/11/19 06:59:56;;;;;;;2.78;2.30;;;0.60;99.90;;;;;;4962817;28;20074;-64
2022/11/19 07:02:23;;;;;;;1.90;1.80;;;0.50;99.90;;;;;;4964441;28;20074;-65
2022/11/19 07:04:49;;;;;;;2.30;2.10;;;0.60;99.90;;;;;;4966990;28;20047;-63
2022/11/19 07:07:16;;;;;;;2.70;1.85;;;0.50;99.90;;;;;;4966901;28;20544;-65
2022/11/19 07:09:43;;;;;;;1.70;1.60;;;0.50;99.90;;;;;;4962015;28;20073;-64
2022/11/19 07:12:10;;;;;;;2.25;2.10;;;0.50;99.90;;;;;;4965030;28;20031;-65
2022/11/19 07:14:37;;;;;;;1.60;1.50;;;0.50;99.90;;;;;;4960532;28;20054;-64
2022/11/19 07:17:05;;;;;;;1.92;1.75;;;0.50;99.90;;;;;;4963495;28;20399;-64
2022/11/19 07:19:31;;;;;;;1.73;1.63;;;0.50;99.90;;;;;;4959104;28;20157;-63
2022/11/19 07:21:58;;;;;;;1.83;1.42;;;0.50;99.90;;;;;;4960980;28;20409;-68
2022/11/19 07:24:25;;;;;;;1.60;1.50;;;0.50;99.90;;;;;;4962634;28;20601;-65
2022/11/19 07:26:53;;;;;;;3.35;3.05;;;0.50;99.90;;;;;;4964366;28;20039;-68
2022/11/19 07:29:20;;;;;;;2.38;2.17;;;0.50;99.90;;;;;;4957654;28;20801;-66
2022/11/19 07:31:49;;;;;;;2.42;2.22;;;0.50;99.90;;;;;;4962009;28;20066;-65
2022/11/19 07:34:16;;;;;;;2.67;2.35;;;0.50;99.90;;;;;;4962098;28;20035;-65
2022/11/19 07:36:44;;;;;;;2.45;2.08;;;0.50;99.90;;;;;;4959915;28;20045;-63
2022/11/19 07:39:15;;;;;;;3.22;2.15;;;0.50;99.90;;;;;;4957698;28;20113;-64
2022/11/19 07:44:27;;;;;;;2.85;2.20;;;0.50;99.90;;;;;;4960040;28;20598;-64
2022/11/19 07:46:54;;;;;;;3.92;2.28;;;0.50;99.90;;;;;;4959721;28;20051;-64
2022/11/19 07:49:21;;;;;;;2.28;2.08;;;0.50;99.90;;;;;;4958527;28;20039;-65
2022/11/19 07:51:49;;;;;;;1.75;1.52;;;0.50;99.90;;;;;;4959004;28;20133;-64
2022/11/19 07:54:15;;;;;;;1.50;1.40;;;0.50;99.90;;;;;;4961748;28;20055;-64
2022/11/19 07:56:42;;;;;;;1.88;1.70;;;0.50;99.90;;;;;;4961426;28;20039;-63
2022/11/19 07:59:10;;;;;;;1.90;1.80;;;0.50;99.90;;;;;;4964967;28;20067;-68
2022/11/19 08:01:37;;;;;;;2.55;1.45;;;0.50;99.90;;;;;;4958996;28;20547;-66
2022/11/19 08:04:04;;;;;;;1.95;1.75;;;0.50;99.90;;;;;;4963020;28;20049;-63
2022/11/19 08:06:34;;;;;;;1.80;1.65;;;0.50;99.90;;;;;;4963407;28;20154;-66
2022/11/19 08:09:03;;;;;;;3.40;2.03;;;0.50;99.90;;;;;;4961716;28;20073;-63
2022/11/19 08:11:30;;;;;;;2.67;1.88;;;0.50;99.90;;;;;;4961734;28;20105;-63
2022/11/19 08:14:01;;;;;;;1.95;1.65;;;0.50;99.90;;;;;;4963671;28;20043;-65
2022/11/19 08:19:15;;;;;;;2.42;2.00;;;0.50;99.90;;;;;;4961574;28;20133;-65
2022/11/19 08:21:45;;;;;;;3.53;2.70;;;0.60;99.90;;;;;;4950877;28;20074;-64
2022/11/19 08:24:12;;;;;;;2.17;1.98;;;0.60;99.90;;;;;;4966592;28;20038;-65
2022/11/19 08:26:40;;;;;;;2.33;2.05;;;0.60;99.90;;;;;;4964954;28;20202;-64
2022/11/19 08:29:08;;;;;;;2.22;2.03;;;0.60;99.90;;;;;;4964073;28;20046;-67
2022/11/19 08:31:44;;;;;;;1.90;1.80;;;0.60;99.90;;;;;;4959505;28;20077;-68
2022/11/19 08:34:11;;;;;;;2.22;1.80;;;0.60;99.90;;;;;;4961073;28;20077;-65
2022/11/19 08:36:38;;;;;;;2.53;1.88;;;0.70;99.90;;;;;;4963238;28;20414;-64
2022/11/19 08:39:05;;;;;;;1.77;1.63;;;0.70;99.90;;;;;;4967540;28;20054;-64
2022/11/19 08:44:18;;;;;;;2.10;1.80;;;0.60;99.90;;;;;;4963855;28;20173;-64
2022/11/19 08:46:45;;;;;;;1.55;1.40;;;0.60;99.90;;;;;;4960842;28;20047;-65
2022/11/19 08:49:13;;;;;;;2.03;1.63;;;0.50;99.90;;;;;;4966788;28;20053;-63
2022/11/19 08:51:40;;;;;;;1.92;1.80;;;0.60;99.90;;;;;;4956863;28;20043;-67
2022/11/19 08:54:07;;;;;;;2.38;2.17;;;0.50;99.90;;;;;;4964389;28;20066;-68
2022/11/19 08:56:34;;;;;;;3.47;2.53;;;0.50;99.90;;;;;;4965649;28;20070;-64
2022/11/19 08:59:01;;;;;;;2.13;1.90;;;0.50;99.90;;;;;;4967158;28;20110;-64
2022/11/19 09:01:29;;;;;;;2.00;1.90;;;0.60;99.90;;;;;;4959339;28;20101;-66
2022/11/19 09:03:56;;;;;;;2.47;1.90;;;0.60;99.90;;;;;;4962992;28;20080;-65
2022/11/19 09:06:23;;;;;;;2.28;2.00;;;0.60;99.90;;;;;;4960905;28;20061;-64
2022/11/19 09:08:50;;;;;;;3.40;2.40;;;0.60;99.90;;;;;;4966047;28;20042;-64
2022/11/19 09:11:19;;;;;;;1.88;1.70;;;0.60;99.90;;;;;;4965300;28;20833;-65
2022/11/19 09:13:46;;;;;;;3.00;2.67;;;0.70;99.90;;;;;;4963144;28;20055;-64
2022/11/19 09:16:13;;;;;;;3.83;2.72;;;0.70;99.90;;;;;;4964714;28;20050;-65
2022/11/19 09:18:41;;;;;;;2.35;2.15;;;0.70;99.90;;;;;;4963536;28;20074;-66
2022/11/19 09:21:10;;;;;;;3.03;2.30;;;0.70;99.90;;;;;;4957905;28;20052;-67
2022/11/19 09:23:37;;;;;;;2.40;2.20;;;0.70;99.90;;;;;;4959851;28;20039;-64
2022/11/19 09:26:07;;;;;;;2.47;2.28;;;0.70;99.90;;;;;;4962797;28;20437;-65
2022/11/19 09:28:34;;;;;;;3.67;2.47;;;0.70;99.90;;;;;;4960884;28;20074;-64
2022/11/19 09:31:01;;;;;;;3.60;2.42;;;0.70;99.90;;;;;;4955197;28;20345;-66
2022/11/19 09:33:30;;;;;;;2.78;2.58;;;0.70;99.90;;;;;;4959398;28;20061;-69
2022/11/19 09:35:57;;;;;;;2.38;1.92;;;0.70;99.90;;;;;;4964305;28;20122;-64
2022/11/19 09:38:25;;;;;;;2.55;2.35;;;0.70;99.90;;;;;;4960687;28;20043;-65
2022/11/19 09:41:00;;;;;;;2.00;1.80;;;0.60;99.90;;;;;;4962997;28;20130;-64
2022/11/19 09:43:54;;;;;;;3.70;1.98;;;0.60;99.90;;;;;;4958722;28;20035;-68
2022/11/19 09:46:36;;;;;;;3.05;2.67;;;0.50;99.90;;;;;;4958483;28;20035;-65
2022/11/19 09:49:13;;;;;;;2.35;2.03;;;0.50;99.90;;;;;;4961342;28;20610;-66
2022/11/19 09:51:51;;;;;;;2.58;2.38;;;0.50;99.90;;;;;;4957593;28;20055;-67
2022/11/19 09:54:21;;;;;;;2.85;2.08;;;0.50;99.90;;;;;;4958229;28;20054;-66
2022/11/19 09:56:53;;;;;;;2.35;2.20;;;0.50;99.90;;;;;;4962046;28;20034;-64
2022/11/19 09:59:27;;;;;;;2.17;1.98;;;0.50;99.90;;;;;;4954897;28;20047;-65
2022/11/19 10:01:54;;;;;;;2.47;2.25;;;0.50;99.90;;;;;;4956377;28;21932;-65
2022/11/19 10:04:24;;;;;;;2.13;1.92;;;0.50;99.90;;;;;;4960822;28;20074;-67
2022/11/19 10:07:10;;;;;;;;;;;0.50;99.90;;;;;;4962453;28;20097;-65
2022/11/19 10:09:52;;;;;;;3.20;2.38;;;0.50;99.90;;;;;;4957866;28;20407;-67
2022/11/19 10:12:33;;;;;;;2.22;2.03;;;0.50;99.90;;;;;;4959321;28;20047;-65
2022/11/19 10:15:09;;;;;;;2.67;2.45;;;0.50;99.90;;;;;;4960829;28;20047;-69
2022/11/19 10:18:02;;;;;;;2.63;2.42;;;0.50;99.90;;;;;;4961553;28;20142;-65
2022/11/19 10:20:29;;;;;;;2.25;2.10;;;0.50;99.90;;;;;;4955220;28;20030;-66
2022/11/19 10:23:07;;;;;;;2.22;2.03;;;0.50;99.90;;;;;;4959652;28;20050;-65
2022/11/19 10:25:41;;;;;;;3.33;2.53;;;0.50;99.90;;;;;;4957284;28;20738;-69
2022/11/19 10:28:24;;;;;;;3.33;2.25;;;0.50;99.90;;;;;;4960344;28;20148;-66
2022/11/19 10:30:54;;;;;;;2.53;2.33;;;0.60;99.90;;;;;;4955226;28;20050;-68
2022/11/19 10:33:35;;;;;;;2.20;2.00;;;0.60;99.90;;;;;;4961564;28;20445;-65
2022/11/19 10:36:16;;;;;;;2.70;2.50;;;0.70;99.90;;;;;;4964137;28;20043;-68
2022/11/19 10:39:01;;;;;;;2.15;1.95;;;0.70;99.90;;;;;;4959158;28;20043;-66
2022/11/19 10:41:44;;;;;;;3.15;2.72;;;0.70;99.90;;;;;;4958909;28;20672;-71
2022/11/19 10:44:35;;;;;;;4.50;3.90;;;0.70;99.90;;;;;;4964776;28;20047;-66
2022/11/19 10:47:02;;;;;;;3.77;3.00;;;0.80;99.90;;;;;;4962722;28;20062;-66
2022/11/19 10:49:31;;;;;;;2.92;2.63;;;0.80;99.90;;;;;;4967704;28;20743;-67
2022/11/19 10:51:58;;;;;;;3.03;2.70;;;0.80;99.90;;;;;;4965569;28;20505;-66
2022/11/19 10:54:27;;;;;;;4.32;2.53;;;0.90;99.90;;;;;;4966894;28;20146;-66
2022/11/19 10:56:55;;;;;;;2.67;2.42;;;0.80;99.90;;;;;;4968318;28;20057;-65
2022/11/19 10:59:26;;;;;;;2.50;2.30;;;0.90;99.90;;;;;;4960213;28;20929;-66
2022/11/19 11:01:55;;;;;;;;;;;0.80;99.90;;;;;;4965264;28;20051;-65
2022/11/19 11:04:24;;;;;;;2.95;2.65;;;0.80;99.90;;;;;;4962476;28;19932;-66
2022/11/19 11:06:58;;;;;;;3.40;2.90;;;0.90;99.90;;;;;;4962444;28;20097;-67
2022/11/19 11:09:31;;;;;;;3.70;3.17;;;0.90;99.90;;;;;;4967114;28;20097;-67
2022/11/19 11:14:51;;;;;;;3.08;2.78;;;1.00;99.90;;;;;;4963963;28;20497;-65
2022/11/19 11:17:20;;;;;;;3.67;2.55;;;1.00;99.90;;;;;;4965390;28;20474;-65
2022/11/19 11:20:03;;;;;;;3.25;2.95;;;1.00;99.90;;;;;;4965316;28;20133;-66
2022/11/19 11:22:31;;;;;;;5.32;3.08;;;1.10;99.90;;;;;;4960880;28;20050;-65
2022/11/19 11:24:59;;;;;;;2.83;2.63;;;1.10;99.90;;;;;;4965382;28;20473;-65
2022/11/19 11:27:34;;;;;;;3.78;3.42;;;1.10;99.90;;;;;;4959392;28;20174;-69
2022/11/19 11:30:10;;;;;;;3.90;3.50;;;1.10;99.90;;;;;;4959584;28;20070;-65
2022/11/19 11:32:39;;;;;;;3.97;3.50;;;1.10;99.90;;;;;;4964062;28;20149;-66
2022/11/19 11:35:34;;;;;;;3.05;2.75;;;1.00;99.90;;;;;;4961336;28;20054;-65
2022/11/19 11:38:02;;;;;;;3.10;2.80;;;1.00;99.90;;;;;;4960070;28;20165;-66
2022/11/19 11:40:30;;;;;;;3.55;3.25;;;0.90;99.90;;;;;;4961991;28;20057;-67
2022/11/19 11:42:57;;;;;;;3.95;3.63;;;0.90;99.90;;;;;;4962019;28;20046;-65
2022/11/19 11:45:31;;;;;;;3.95;3.58;;;0.90;99.90;;;;;;4957508;28;20137;-70
2022/11/19 11:48:06;;;;;;;3.42;3.22;;;0.90;99.90;;;;;;4959303;28;20737;-67
2022/11/19 11:50:35;;;;;;;4.70;3.55;;;0.80;99.90;;;;;;4960885;28;20071;-65
2022/11/19 11:53:07;;;;;;;4.63;3.85;;;0.80;99.90;;;;;;4958768;28;20061;-65
2022/11/19 11:55:35;;;;;;;3.28;2.95;;;0.70;99.90;;;;;;4959571;28;20512;-65
2022/11/19 11:58:04;;;;;;;3.83;3.42;;;0.80;99.90;;;;;;4960375;28;20046;-66
2022/11/19 12:00:44;;;;;;;4.82;4.25;;;0.80;99.90;;;;;;4962927;28;20070;-66
2022/11/19 12:03:12;;;;;;;;;;;0.70;99.90;;;;;;4955556;28;20166;-66
2022/11/19 12:05:39;;;;;;;7.28;3.88;;;0.70;99.90;;;;;;4961170;28;19930;-66
2022/11/19 12:08:23;;;;;;;4.57;4.07;;;0.60;99.90;;;;;;4966086;28;20066;-65
2022/11/19 12:11:00;;;;;;;5.15;4.18;;;0.50;99.90;;;;;;4961095;28;20039;-69
2022/11/19 12:13:46;;;;;;;5.75;4.40;;;0.60;99.90;;;;;;4960687;28;20046;-66
2022/11/19 12:16:31;;;;;;;5.60;4.47;;;0.60;99.90;;;;;;4959505;28;20046;-67
2022/11/19 12:19:07;;;;;;;4.20;3.80;;;0.50;99.90;;;;;;4959734;28;20174;-67
2022/11/19 12:21:50;;;;;;;4.57;3.90;;;0.50;99.90;;;;;;4962287;28;20067;-67
2022/11/19 12:24:34;;;;;;;4.75;3.83;;;0.50;99.90;;;;;;4964674;28;20065;-68
2022/11/19 12:27:20;;;;;;;5.60;4.75;;;0.40;99.90;;;;;;4962743;28;20035;-66
2022/11/19 12:30:04;;;;;;;4.22;3.83;;;0.40;99.90;;;;;;4960520;28;20041;-66
2022/11/19 12:32:42;;;;;;;6.18;4.57;;;0.40;99.90;;;;;;4965988;28;20377;-66
2022/11/19 12:35:22;;;;;;;5.47;3.40;;;0.40;99.90;;;;;;4956276;28;20121;-67
2022/11/19 12:38:24;;;;;;;4.60;4.13;;;0.30;99.90;;;;;;4954775;28;20359;-66
2022/11/19 12:41:21;;;;;;;5.22;4.28;;;0.30;99.90;;;;;;4958455;28;20038;-71
2022/11/19 12:44:00;;;;;;;4.88;3.72;;;0.30;99.90;;;;;;4956326;28;20043;-66
2022/11/19 12:46:55;;;;;;;3.83;3.53;;;0.20;99.90;;;;;;4964129;28;20460;-71
2022/11/19 12:49:50;;;;;;;3.45;3.15;;;0.20;99.90;;;;;;4954654;28;20430;-66
2022/11/19 12:52:25;;;;;;;3.80;3.50;;;0.20;99.90;;;;;;4959494;28;20071;-65
2022/11/19 12:55:11;;;;;;;4.13;3.67;;;0.20;99.90;;;;;;4960231;28;20058;-66
2022/11/19 12:57:38;;;;;;;5.03;4.53;;;0.10;99.90;;;;;;4958706;28;20047;-65
2022/11/19 13:00:11;;;;;;;3.35;3.03;;;0.10;99.90;;;;;;4962502;28;20043;-66
2022/11/19 13:02:47;;;;;;;3.95;3.58;;;0.10;99.90;;;;;;4963582;28;20035;-66
2022/11/19 13:05:21;;;;;;;3.40;3.10;;;0.10;99.90;;;;;;4961645;28;20641;-68
2022/11/19 13:08:12;;;;;;;2.95;2.65;;;0.00;99.90;;;;;;4963808;28;20857;-65
2022/11/19 13:10:44;;;;;;;3.55;3.25;;;-0.10;99.90;;;;;;4960595;28;20039;-66
2022/11/19 13:13:14;;;;;;;3.10;2.80;;;-0.10;99.90;;;;;;4962909;28;20094;-66
2022/11/19 13:15:52;;;;;;;3.60;3.10;;;-0.20;99.90;;;;;;4959022;28;20178;-72
2022/11/19 13:18:20;;;;;;;3.67;2.90;;;-0.20;99.90;;;;;;4964967;28;20050;-66
2022/11/19 13:20:50;;;;;;;4.70;3.53;;;-0.20;99.90;;;;;;4966391;28;20161;-67
2022/11/19 13:23:37;;;;;;;6.55;3.92;;;-0.20;99.90;;;;;;4957664;28;20520;-68
2022/11/19 13:26:07;;;;;;;4.47;4.05;;;-0.20;99.90;;;;;;4958714;28;20046;-65
2022/11/19 13:29:11;;;;;;;4.13;3.72;;;-0.20;99.90;;;;;;4958795;28;20049;-67
2022/11/19 13:31:47;;;;;;;4.45;3.67;;;-0.20;99.90;;;;;;4942115;28;20143;-66
2022/11/19 13:34:36;;;;;;;5.03;4.53;;;-0.20;99.90;;;;;;4965009;28;20056;-66
2022/11/19 13:37:10;;;;;;;4.03;3.15;;;-0.20;99.90;;;;;;4962392;28;20051;-66
2022/11/19 13:40:05;;;;;;;3.47;3.17;;;-0.20;99.90;;;;;;4960349;28;20525;-65
2022/11/19 13:45:41;;;;;;;3.53;3.20;;;-0.30;99.90;;;;;;4955164;28;20055;-65
2022/11/19 13:48:27;;;;;;;5.63;4.63;;;-0.30;99.90;;;;;;4959851;28;20050;-65